Chiloquin, Oregon
Current Conditions -  °F | °C
As of 6:53 PM on Monday 20 Oct 2014 (Local Time) from KLMT Reporting Station
Broken Clouds Broken Clouds  
Wind Chill: 41°   Ceiling: 6000
Heat Index: 45°   Visibility: 10mi
Dew Point: 39°   Wind: 7mph
Humidity: 80%   Direction: 170°S
Pressure: 29.87"   Gusts: NA
Location:  42.58°N, 121.87°W
Report Text: KLMT 210153Z 17006KT 10SM BKN060 07/04 A2987 RMK AO2 SLP099 T00720039
Loading
Personal Weather Stations






























Interactive Weather Map
Tropical Storm Tracking
New forecast layout! Learn more

10-Day Weather Forecast

Advertisements
Track Severe Weather on mobile